Time;durP1;ratioP1;P1;durP2;ratioP2;P2;SDS_P1;SDS_P2;PMS_P1;PMS_P2;Temp;Humidity;BMP_temperature;BMP_pressure;BME280_temperature;BME280_humidity;BME280_pressure;Samples;Min_cycle;Max_cycle;Signal;HPM_P1;HPM_P2
2021/12/29 00:00:54;;;;;;;0.30;0.20;;;6.70;99.90;;;;;;4918798;29;20455;-88
2021/12/29 00:03:20;;;;;;;0.30;0.23;;;6.70;99.90;;;;;;4918456;29;20476;-88
2021/12/29 00:05:47;;;;;;;0.30;0.20;;;6.70;99.90;;;;;;4918002;29;20983;-88
2021/12/29 00:08:14;;;;;;;0.30;0.20;;;6.70;99.90;;;;;;4918111;29;20913;-89
2021/12/29 00:10:41;;;;;;;0.30;0.30;;;6.80;99.90;;;;;;4918314;29;20825;-88
2021/12/29 00:13:09;;;;;;;0.30;0.20;;;6.80;99.90;;;;;;4918430;29;20475;-91
2021/12/29 00:15:36;;;;;;;0.30;0.20;;;6.70;99.90;;;;;;4918669;29;20456;-91
2021/12/29 00:18:03;;;;;;;0.30;0.20;;;6.70;99.90;;;;;;4918686;29;20554;-91
2021/12/29 00:20:32;;;;;;;0.30;0.20;;;6.70;99.90;;;;;;4917698;29;20462;-85
2021/12/29 00:23:00;;;;;;;0.30;0.20;;;6.80;99.90;;;;;;4917512;29;20569;-85
2021/12/29 00:25:27;;;;;;;0.30;0.30;;;6.80;99.90;;;;;;4917547;29;20476;-85
2021/12/29 00:27:54;;;;;;;0.30;0.20;;;6.70;99.90;;;;;;4917222;29;20459;-85
2021/12/29 00:30:23;;;;;;;0.30;0.20;;;6.70;99.90;;;;;;4918032;29;20468;-91
2021/12/29 00:32:50;;;;;;;0.30;0.20;;;6.70;99.90;;;;;;4918334;29;20488;-91
2021/12/29 00:35:18;;;;;;;0.30;0.20;;;6.80;99.90;;;;;;4918116;29;20456;-91
2021/12/29 00:37:45;;;;;;;0.30;0.20;;;6.80;99.90;;;;;;4918079;29;20500;-92
2021/12/29 00:40:13;;;;;;;0.30;0.20;;;6.80;99.90;;;;;;4918442;29;20444;-91
2021/12/29 00:42:40;;;;;;;1.00;0.30;;;6.80;99.90;;;;;;4917933;29;20460;-91
2021/12/29 00:45:08;;;;;;;0.30;0.23;;;6.80;99.90;;;;;;4918180;29;20515;-91
2021/12/29 00:47:38;;;;;;;0.30;0.20;;;6.80;99.90;;;;;;4917978;29;20460;-91
2021/12/29 00:50:07;;;;;;;0.30;0.20;;;6.80;99.90;;;;;;4918526;29;20448;-83
2021/12/29 00:52:33;;;;;;;0.30;0.20;;;6.80;99.90;;;;;;4923186;29;20460;-83
2021/12/29 00:55:01;;;;;;;0.30;0.20;;;6.80;99.90;;;;;;4923694;29;20452;-91
2021/12/29 00:57:29;;;;;;;0.30;0.20;;;6.80;99.90;;;;;;4924182;29;20943;-91
2021/12/29 00:59:56;;;;;;;0.30;0.20;;;6.80;99.90;;;;;;4924161;29;20975;-91
2021/12/29 01:02:23;;;;;;;0.30;0.20;;;6.80;99.90;;;;;;4924342;29;20487;-91
2021/12/29 01:04:51;;;;;;;0.30;0.20;;;6.80;99.90;;;;;;4924263;29;20494;-91
2021/12/29 01:07:19;;;;;;;1.00;0.97;;;6.80;99.90;;;;;;4923940;29;20832;-90
2021/12/29 01:09:46;;;;;;;0.30;0.20;;;6.80;99.90;;;;;;4924305;29;20813;-90
2021/12/29 01:12:15;;;;;;;0.30;0.20;;;6.80;99.90;;;;;;4924253;29;20475;-90
2021/12/29 01:14:44;;;;;;;0.30;0.20;;;6.80;99.90;;;;;;4924582;29;20502;-90
2021/12/29 01:17:11;;;;;;;0.30;0.20;;;6.80;99.90;;;;;;4924395;29;20448;-90
2021/12/29 01:19:38;;;;;;;0.30;0.20;;;6.80;99.90;;;;;;4924434;29;20451;-90
2021/12/29 01:22:06;;;;;;;0.30;0.30;;;6.80;99.90;;;;;;4924352;29;20475;-90
2021/12/29 01:24:33;;;;;;;0.30;0.20;;;6.80;99.90;;;;;;4924108;29;20479;-90
2021/12/29 01:27:00;;;;;;;0.30;0.20;;;6.80;99.90;;;;;;4923950;29;20459;-89
2021/12/29 01:29:28;;;;;;;0.30;0.20;;;6.90;99.90;;;;;;4923885;29;20447;-89
2021/12/29 01:31:55;;;;;;;0.30;0.20;;;6.90;99.90;;;;;;4924070;29;20574;-88
2021/12/29 01:34:22;;;;;;;0.30;0.30;;;7.00;99.90;;;;;;4923140;29;20810;-83
2021/12/29 01:36:49;;;;;;;0.30;0.20;;;7.00;99.90;;;;;;4923897;29;20460;-90
2021/12/29 01:39:19;;;;;;;0.30;0.20;;;7.00;99.90;;;;;;4923967;29;20952;-90
2021/12/29 01:41:48;;;;;;;0.30;0.20;;;7.00;99.90;;;;;;4924044;29;20971;-87
2021/12/29 01:44:16;;;;;;;0.30;0.20;;;7.00;99.90;;;;;;4923495;29;20995;-88
2021/12/29 01:46:45;;;;;;;0.30;0.30;;;7.00;99.90;;;;;;4923755;29;20502;-88
2021/12/29 01:49:13;;;;;;;0.30;0.20;;;7.00;99.90;;;;;;4923636;29;20463;-88
2021/12/29 01:51:48;;;;;;;0.30;0.30;;;7.00;99.90;;;;;;4923666;29;21007;-90
2021/12/29 01:54:23;;;;;;;0.30;0.20;;;7.00;99.90;;;;;;4923974;29;20442;-89
2021/12/29 01:56:54;;;;;;;0.30;0.20;;;7.00;99.90;;;;;;4923724;29;20436;-88
2021/12/29 01:59:22;;;;;;;0.30;0.20;;;7.00;99.90;;;;;;4923562;29;20444;-88
2021/12/29 02:01:49;;;;;;;0.30;0.20;;;7.00;99.90;;;;;;4922054;29;20476;-88
2021/12/29 02:04:15;;;;;;;0.30;0.20;;;7.00;99.90;;;;;;4920333;29;20483;-88
2021/12/29 02:06:43;;;;;;;0.30;0.20;;;7.00;99.90;;;;;;4920237;29;20507;-88
2021/12/29 02:09:10;;;;;;;0.30;0.20;;;7.00;99.90;;;;;;4920418;29;20452;-88
2021/12/29 02:11:38;;;;;;;0.30;0.30;;;7.00;99.90;;;;;;4920471;29;20517;-88
2021/12/29 02:14:09;;;;;;;0.30;0.30;;;7.00;99.90;;;;;;4920312;29;20452;-88
2021/12/29 02:16:37;;;;;;;0.30;0.20;;;7.00;99.90;;;;;;4920661;29;20468;-88
2021/12/29 02:19:08;;;;;;;0.30;0.20;;;7.00;99.90;;;;;;4919781;29;20456;-85
2021/12/29 02:21:37;;;;;;;0.30;0.20;;;7.00;99.90;;;;;;4919559;29;20448;-85
2021/12/29 02:26:47;;;;;;;0.30;0.30;;;7.00;99.90;;;;;;4917428;29;20491;-88
2021/12/29 02:29:17;;;;;;;0.30;0.30;;;7.00;99.90;;;;;;4920099;29;20811;-88
2021/12/29 02:31:44;;;;;;;0.30;0.20;;;7.00;99.90;;;;;;4920177;29;20480;-88
2021/12/29 02:34:14;;;;;;;0.70;0.70;;;7.00;99.90;;;;;;4919957;29;20459;-88
2021/12/29 02:36:47;;;;;;;0.30;0.20;;;7.00;99.90;;;;;;4919962;29;20825;-88
2021/12/29 02:39:17;;;;;;;0.30;0.20;;;7.00;99.90;;;;;;4919817;29;20443;-88
2021/12/29 02:41:49;;;;;;;0.30;0.30;;;7.00;99.90;;;;;;4919862;29;20456;-88
2021/12/29 02:44:23;;;;;;;0.30;0.20;;;7.10;99.90;;;;;;4919809;29;20527;-88
2021/12/29 02:46:50;;;;;;;0.30;0.20;;;7.10;99.90;;;;;;4919299;29;20988;-83
2021/12/29 02:49:17;;;;;;;0.30;0.20;;;7.10;99.90;;;;;;4918982;29;20460;-83
2021/12/29 02:51:45;;;;;;;0.30;0.30;;;7.10;99.90;;;;;;4918650;29;20483;-83
2021/12/29 02:54:12;;;;;;;0.30;0.20;;;7.10;99.90;;;;;;4918794;29;20452;-84
2021/12/29 02:56:39;;;;;;;0.30;0.20;;;7.10;99.90;;;;;;4918957;29;20459;-84
2021/12/29 02:59:06;;;;;;;0.30;0.20;;;7.10;99.90;;;;;;4919109;29;20471;-88
2021/12/29 03:01:32;;;;;;;0.30;0.20;;;7.10;99.90;;;;;;4919481;29;20798;-89
2021/12/29 03:04:04;;;;;;;0.40;0.30;;;7.10;99.90;;;;;;4919136;29;20449;-87
2021/12/29 03:06:30;;;;;;;0.30;0.20;;;7.10;99.90;;;;;;4919217;29;20487;-87
2021/12/29 03:08:58;;;;;;;0.30;0.30;;;7.10;99.90;;;;;;4919356;29;20449;-88
2021/12/29 03:11:25;;;;;;;0.30;0.20;;;7.10;99.90;;;;;;4919303;29;20456;-88
2021/12/29 03:13:52;;;;;;;0.40;0.30;;;7.20;99.90;;;;;;4918679;29;20818;-83
2021/12/29 03:16:19;;;;;;;0.30;0.20;;;7.20;99.90;;;;;;4918365;29;20964;-83
2021/12/29 03:18:46;;;;;;;0.30;0.30;;;7.20;99.90;;;;;;4918580;29;20452;-83
2021/12/29 03:21:13;;;;;;;0.30;0.20;;;7.20;99.90;;;;;;4918255;29;20802;-83
2021/12/29 03:23:40;;;;;;;0.30;0.20;;;7.20;99.90;;;;;;4918395;29;20453;-89
2021/12/29 03:26:08;;;;;;;0.30;0.20;;;7.20;99.90;;;;;;4919093;29;20484;-89
2021/12/29 03:28:37;;;;;;;0.30;0.20;;;7.20;99.90;;;;;;4919088;29;20444;-89
2021/12/29 03:31:04;;;;;;;0.30;0.20;;;7.20;99.90;;;;;;4919181;29;20940;-88
2021/12/29 03:33:31;;;;;;;0.30;0.20;;;7.20;99.90;;;;;;4918857;29;20480;-89
2021/12/29 03:36:02;;;;;;;0.30;0.20;;;7.20;99.90;;;;;;4918487;29;20457;-84
2021/12/29 03:38:31;;;;;;;0.30;0.20;;;7.20;99.90;;;;;;4918551;29;20440;-89
2021/12/29 03:40:58;;;;;;;0.30;0.30;;;7.20;99.90;;;;;;4919118;29;20455;-89
2021/12/29 03:43:28;;;;;;;0.30;0.20;;;7.30;99.90;;;;;;4918763;29;20460;-89
2021/12/29 03:45:55;;;;;;;0.30;0.20;;;7.30;99.90;;;;;;4918312;29;20475;-83
2021/12/29 03:48:25;;;;;;;0.30;0.20;;;7.30;99.90;;;;;;4917695;29;20452;-83
2021/12/29 03:50:52;;;;;;;0.30;0.20;;;7.20;99.90;;;;;;4917674;29;20956;-83
2021/12/29 03:53:19;;;;;;;0.30;0.20;;;7.20;99.90;;;;;;4917935;29;20479;-83
2021/12/29 03:55:48;;;;;;;0.50;0.50;;;7.30;99.90;;;;;;4918063;29;20456;-88
2021/12/29 03:58:15;;;;;;;0.30;0.20;;;7.30;99.90;;;;;;4918592;29;20455;-88
2021/12/29 04:00:44;;;;;;;0.30;0.20;;;7.30;99.90;;;;;;4918198;29;20436;-88
2021/12/29 04:03:11;;;;;;;0.30;0.20;;;7.30;99.90;;;;;;4918167;29;21015;-88
2021/12/29 04:05:38;;;;;;;0.30;0.20;;;7.30;99.90;;;;;;4918300;29;20491;-88
2021/12/29 04:08:05;;;;;;;0.30;0.20;;;7.30;99.90;;;;;;4917949;29;21018;-88
2021/12/29 04:10:33;;;;;;;0.30;0.20;;;7.30;99.90;;;;;;4918424;29;20452;-88
2021/12/29 04:13:02;;;;;;;0.30;0.20;;;7.30;99.90;;;;;;4917628;29;20992;-83
2021/12/29 04:15:30;;;;;;;0.30;0.20;;;7.30;99.90;;;;;;4917649;29;20450;-84
2021/12/29 04:18:02;;;;;;;0.30;0.20;;;7.30;99.90;;;;;;4917601;29;20449;-83
2021/12/29 04:23:16;;;;;;;0.30;0.20;;;7.40;99.90;;;;;;4917634;29;20455;-88
2021/12/29 04:25:48;;;;;;;0.30;0.20;;;7.30;99.90;;;;;;4917689;29;20488;-88
2021/12/29 04:28:20;;;;;;;0.30;0.20;;;7.40;99.90;;;;;;4917967;29;20440;-88
2021/12/29 04:30:47;;;;;;;0.30;0.20;;;7.40;99.90;;;;;;4918160;29;20448;-88
2021/12/29 04:33:15;;;;;;;0.30;0.20;;;7.30;99.90;;;;;;4917363;29;20467;-84
2021/12/29 04:35:42;;;;;;;0.30;0.20;;;7.30;99.90;;;;;;4917082;29;20826;-84
2021/12/29 04:38:09;;;;;;;0.30;0.30;;;7.30;99.90;;;;;;4917069;29;20459;-84
2021/12/29 04:40:35;;;;;;;0.77;0.77;;;7.30;99.90;;;;;;4917054;29;20447;-84
2021/12/29 04:43:03;;;;;;;0.30;0.30;;;7.40;99.90;;;;;;4917184;29;20472;-84
2021/12/29 04:45:29;;;;;;;0.30;0.20;;;7.40;99.90;;;;;;4917541;29;20832;-84
2021/12/29 04:47:56;;;;;;;0.30;0.20;;;7.40;99.90;;;;;;4917219;29;20432;-89
2021/12/29 04:50:27;;;;;;;0.30;0.20;;;7.40;99.90;;;;;;4918005;29;20462;-89
2021/12/29 04:52:55;;;;;;;0.30;0.20;;;7.40;99.90;;;;;;4918162;29;20482;-89
2021/12/29 04:55:22;;;;;;;0.30;0.20;;;7.40;99.90;;;;;;4918085;29;20460;-89
2021/12/29 04:57:49;;;;;;;0.30;0.30;;;7.40;99.90;;;;;;4918008;29;20529;-89
2021/12/29 05:00:17;;;;;;;0.30;0.20;;;7.40;99.90;;;;;;4918044;29;20468;-89
2021/12/29 05:02:44;;;;;;;0.30;0.20;;;7.40;99.90;;;;;;4917642;29;20472;-89
2021/12/29 05:05:21;;;;;;;0.30;0.30;;;7.40;99.90;;;;;;4916995;29;20920;-83
2021/12/29 05:10:35;;;;;;;0.30;0.30;;;7.40;99.90;;;;;;4916818;29;20416;-83
2021/12/29 05:13:02;;;;;;;0.30;0.23;;;7.40;99.90;;;;;;4916607;29;20933;-83
2021/12/29 05:15:29;;;;;;;0.30;0.20;;;7.40;99.90;;;;;;4916676;29;20473;-83
2021/12/29 05:17:58;;;;;;;0.30;0.20;;;7.40;99.90;;;;;;4916673;29;20953;-83
2021/12/29 05:20:26;;;;;;;0.30;0.20;;;7.40;99.90;;;;;;4917145;29;20448;-83
2021/12/29 05:22:54;;;;;;;0.30;0.20;;;7.40;99.90;;;;;;4917588;29;20480;-89
2021/12/29 05:25:21;;;;;;;0.30;0.20;;;7.40;99.90;;;;;;4917638;29;20476;-89
2021/12/29 05:27:48;;;;;;;0.30;0.20;;;7.30;99.90;;;;;;4917680;29;20929;-89
2021/12/29 05:30:15;;;;;;;0.30;0.20;;;7.40;99.90;;;;;;4917906;29;20467;-89
2021/12/29 05:32:41;;;;;;;0.30;0.20;;;7.40;99.90;;;;;;4916846;29;20842;-84
2021/12/29 05:35:09;;;;;;;0.30;0.30;;;7.40;99.90;;;;;;4916547;29;20444;-85
2021/12/29 05:37:36;;;;;;;0.30;0.20;;;7.40;99.90;;;;;;4918419;29;20459;-89
2021/12/29 05:40:06;;;;;;;0.30;0.20;;;7.40;99.90;;;;;;4920742;29;20448;-84
2021/12/29 05:42:33;;;;;;;0.30;0.20;;;7.40;99.90;;;;;;4919995;29;20456;-84
2021/12/29 05:45:00;;;;;;;0.30;0.20;;;7.30;99.90;;;;;;4921037;29;20451;-89
2021/12/29 05:47:27;;;;;;;0.30;0.20;;;7.30;99.90;;;;;;4920720;29;20945;-89
2021/12/29 05:49:54;;;;;;;0.30;0.20;;;7.40;99.90;;;;;;4921123;29;20448;-89
2021/12/29 05:52:21;;;;;;;0.30;0.20;;;7.40;99.90;;;;;;4920730;29;20532;-89
2021/12/29 05:54:47;;;;;;;0.30;0.20;;;7.30;99.90;;;;;;4920878;29;20442;-89
2021/12/29 05:57:16;;;;;;;0.30;0.20;;;7.30;99.90;;;;;;4920812;29;20936;-89
2021/12/29 05:59:43;;;;;;;0.30;0.20;;;7.30;99.90;;;;;;4920933;29;20464;-90
2021/12/29 06:02:09;;;;;;;0.30;0.20;;;7.30;99.90;;;;;;4920670;29;21022;-89
2021/12/29 06:04:36;;;;;;;0.30;0.20;;;7.40;99.90;;;;;;4920728;29;20478;-89
2021/12/29 06:07:03;;;;;;;0.30;0.20;;;7.40;99.90;;;;;;4920437;29;20502;-89
2021/12/29 06:09:30;;;;;;;0.30;0.20;;;7.40;99.90;;;;;;4920868;29;20460;-89
2021/12/29 06:11:57;;;;;;;0.30;0.20;;;7.40;99.90;;;;;;4920510;29;20539;-89
2021/12/29 06:14:25;;;;;;;0.30;0.30;;;7.40;99.90;;;;;;4920460;29;20440;-90
2021/12/29 06:16:52;;;;;;;0.30;0.20;;;7.30;99.90;;;;;;4920728;29;20452;-90
2021/12/29 06:19:18;;;;;;;0.30;0.20;;;7.30;99.90;;;;;;4920675;29;20524;-91
2021/12/29 06:21:45;;;;;;;0.30;0.20;;;7.40;99.90;;;;;;4920566;29;20456;-90
2021/12/29 06:24:12;;;;;;;0.30;0.20;;;7.40;99.90;;;;;;4920897;29;20448;-90
2021/12/29 06:26:39;;;;;;;0.30;0.30;;;7.30;99.90;;;;;;4919851;29;20480;-85
2021/12/29 06:29:05;;;;;;;0.30;0.20;;;7.30;99.90;;;;;;4920057;29;20456;-85
2021/12/29 06:31:33;;;;;;;0.30;0.20;;;7.20;99.90;;;;;;4919484;29;20456;-85
2021/12/29 06:34:01;;;;;;;0.30;0.20;;;7.20;99.90;;;;;;4919314;29;20441;-85
2021/12/29 06:36:28;;;;;;;0.30;0.20;;;7.20;99.90;;;;;;4919604;29;20501;-89
2021/12/29 06:38:55;;;;;;;0.87;0.87;;;7.20;99.90;;;;;;4920382;29;20452;-89
2021/12/29 06:41:22;;;;;;;0.30;0.30;;;7.20;99.90;;;;;;4920195;29;20456;-90
2021/12/29 06:43:49;;;;;;;0.30;0.20;;;7.20;99.90;;;;;;4920047;29;20513;-90
2021/12/29 06:46:16;;;;;;;0.30;0.20;;;7.20;99.90;;;;;;4919972;29;20540;-90
2021/12/29 06:48:44;;;;;;;0.30;0.20;;;7.20;99.90;;;;;;4919557;29;20798;-90
2021/12/29 06:51:10;;;;;;;0.30;0.20;;;7.20;99.90;;;;;;4919464;29;20825;-88
2021/12/29 06:53:37;;;;;;;0.30;0.20;;;7.20;99.90;;;;;;4919336;29;20857;-87
2021/12/29 06:56:05;;;;;;;0.30;0.20;;;7.20;99.90;;;;;;4919256;29;20459;-88
2021/12/29 06:58:32;;;;;;;0.30;0.20;;;7.20;99.90;;;;;;4919819;29;20487;-90
2021/12/29 07:00:59;;;;;;;0.40;0.30;;;7.30;99.90;;;;;;4919743;29;20440;-90
2021/12/29 07:03:26;;;;;;;0.30;0.20;;;7.30;99.90;;;;;;4919929;29;20472;-91
2021/12/29 07:05:55;;;;;;;0.50;0.50;;;7.30;99.90;;;;;;4919333;29;20547;-90
2021/12/29 07:08:22;;;;;;;0.30;0.30;;;7.20;99.90;;;;;;4919846;29;20437;-91
2021/12/29 07:10:49;;;;;;;0.30;0.20;;;7.20;99.90;;;;;;4919600;29;20444;-90
2021/12/29 07:13:16;;;;;;;0.30;0.20;;;7.20;99.90;;;;;;4919666;29;20483;-84
2021/12/29 07:15:43;;;;;;;0.30;0.20;;;7.20;99.90;;;;;;4918699;29;20455;-83
2021/12/29 07:18:10;;;;;;;0.30;0.20;;;7.20;99.90;;;;;;4918640;29;20444;-83
2021/12/29 07:20:38;;;;;;;0.30;0.30;;;7.20;99.90;;;;;;4919213;29;20795;-83
2021/12/29 07:23:06;;;;;;;0.30;0.20;;;7.20;99.90;;;;;;4918460;29;20545;-84
2021/12/29 07:25:33;;;;;;;0.30;0.30;;;7.20;99.90;;;;;;4918383;29;20452;-84
2021/12/29 07:28:00;;;;;;;0.30;0.20;;;7.20;99.90;;;;;;4918411;29;20452;-83
2021/12/29 07:30:27;;;;;;;0.30;0.20;;;7.20;99.90;;;;;;4918420;29;20979;-86
2021/12/29 07:32:54;;;;;;;0.30;0.20;;;7.20;99.90;;;;;;4918711;29;20828;-88
2021/12/29 07:35:21;;;;;;;0.30;0.20;;;7.20;99.90;;;;;;4918885;29;20460;-89
2021/12/29 07:37:49;;;;;;;0.30;0.20;;;7.10;99.90;;;;;;4918569;29;20447;-88
2021/12/29 07:40:18;;;;;;;0.30;0.30;;;7.20;99.90;;;;;;4918747;29;20502;-88
2021/12/29 07:42:45;;;;;;;0.30;0.20;;;7.20;99.90;;;;;;4918486;29;20829;-88
2021/12/29 07:45:12;;;;;;;0.30;0.30;;;7.20;99.90;;;;;;4918251;29;20467;-84
2021/12/29 07:47:46;;;;;;;0.30;0.20;;;7.20;99.90;;;;;;4917794;29;20852;-84
2021/12/29 07:50:14;;;;;;;0.30;0.30;;;7.20;99.90;;;;;;4918122;29;20441;-84
2021/12/29 07:52:40;;;;;;;0.30;0.20;;;7.20;99.90;;;;;;4917917;29;20467;-84
2021/12/29 07:55:08;;;;;;;0.30;0.20;;;7.20;99.90;;;;;;4917941;29;20456;-84
2021/12/29 07:57:36;;;;;;;0.30;0.20;;;7.20;99.90;;;;;;4918054;29;20456;-84
2021/12/29 08:00:04;;;;;;;0.30;0.20;;;7.30;99.90;;;;;;4916908;29;20448;-84
2021/12/29 08:02:31;;;;;;;0.30;0.20;;;7.20;99.90;;;;;;4917974;29;20567;-86
2021/12/29 08:04:58;;;;;;;0.30;0.20;;;7.30;99.90;;;;;;4917949;29;20440;-86
2021/12/29 08:07:25;;;;;;;0.30;0.20;;;7.30;99.90;;;;;;4917527;29;20500;-85
2021/12/29 08:09:52;;;;;;;0.30;0.20;;;7.30;99.90;;;;;;4917906;29;20464;-85
2021/12/29 08:12:19;;;;;;;0.30;0.20;;;7.40;99.90;;;;;;4917681;29;20483;-85
2021/12/29 08:14:49;;;;;;;0.30;0.20;;;7.50;99.90;;;;;;4917882;29;20437;-85
2021/12/29 08:17:16;;;;;;;0.30;0.20;;;7.50;99.90;;;;;;4917830;29;20440;-85
2021/12/29 08:19:43;;;;;;;0.30;0.20;;;7.50;99.90;;;;;;4918073;29;20432;-88
2021/12/29 08:22:12;;;;;;;0.30;0.20;;;7.50;99.90;;;;;;4918333;29;20492;-88
2021/12/29 08:24:38;;;;;;;0.30;0.20;;;7.50;99.90;;;;;;4917997;29;20447;-86
2021/12/29 08:27:06;;;;;;;0.30;0.20;;;7.50;99.90;;;;;;4917624;29;20839;-85
2021/12/29 08:29:33;;;;;;;0.30;0.20;;;7.40;99.90;;;;;;4917540;29;20441;-85
2021/12/29 08:32:01;;;;;;;0.30;0.20;;;7.50;99.90;;;;;;4917500;29;20478;-85
2021/12/29 08:34:29;;;;;;;0.50;0.40;;;7.50;99.90;;;;;;4918830;29;20455;-90
2021/12/29 08:36:56;;;;;;;0.50;0.47;;;7.50;99.90;;;;;;4918597;29;20433;-90
2021/12/29 08:39:25;;;;;;;0.30;0.20;;;7.60;99.90;;;;;;4918312;29;20416;-90
2021/12/29 08:41:52;;;;;;;0.30;0.20;;;7.60;99.90;;;;;;4918229;29;20578;-90
2021/12/29 08:44:19;;;;;;;0.30;0.30;;;7.70;99.90;;;;;;4917960;29;20808;-89
2021/12/29 08:46:46;;;;;;;0.30;0.20;;;7.80;99.90;;;;;;4917907;29;20492;-89
2021/12/29 08:49:15;;;;;;;0.30;0.20;;;7.80;99.90;;;;;;4917955;29;20798;-89
2021/12/29 08:51:42;;;;;;;0.30;0.20;;;7.90;99.90;;;;;;4931002;29;20459;-87
2021/12/29 08:54:09;;;;;;;0.30;0.30;;;7.90;99.90;;;;;;4926197;29;20816;-87
2021/12/29 08:56:36;;;;;;;0.30;0.20;;;7.90;99.90;;;;;;4934177;29;20455;-88
2021/12/29 08:59:04;;;;;;;0.30;0.20;;;8.00;99.90;;;;;;4917832;29;20463;-89
2021/12/29 09:01:31;;;;;;;0.30;0.20;;;8.00;99.90;;;;;;4917629;29;20460;-88
2021/12/29 09:03:58;;;;;;;0.30;0.20;;;8.00;99.90;;;;;;4917623;29;20819;-88
2021/12/29 09:06:26;;;;;;;0.30;0.20;;;8.10;99.90;;;;;;4917130;29;20506;-88
2021/12/29 09:08:54;;;;;;;0.30;0.20;;;8.10;99.90;;;;;;4917734;29;20451;-88
2021/12/29 09:11:21;;;;;;;0.30;0.30;;;8.10;99.90;;;;;;4918168;29;20467;-88
2021/12/29 09:13:48;;;;;;;0.30;0.20;;;8.10;99.90;;;;;;4921550;29;20907;-88
2021/12/29 09:16:15;;;;;;;0.30;0.20;;;8.10;99.90;;;;;;4921186;29;20963;-88
2021/12/29 09:18:41;;;;;;;0.30;0.20;;;8.20;99.90;;;;;;4920621;29;20952;-86
2021/12/29 09:21:13;;;;;;;0.30;0.20;;;8.10;99.90;;;;;;4920746;29;20441;-86
2021/12/29 09:23:43;;;;;;;0.30;0.20;;;8.20;99.90;;;;;;4920758;29;20476;-86
2021/12/29 09:26:12;;;;;;;0.30;0.20;;;8.30;99.90;;;;;;4920661;29;20478;-86
2021/12/29 09:28:39;;;;;;;0.30;0.20;;;8.30;99.90;;;;;;4920739;29;20448;-86
2021/12/29 09:31:06;;;;;;;1.17;0.30;;;8.40;99.90;;;;;;4920707;29;20450;-85
2021/12/29 09:33:33;;;;;;;0.30;0.20;;;8.60;99.90;;;;;;4920676;29;20486;-86
2021/12/29 09:36:02;;;;;;;0.30;0.20;;;8.60;99.90;;;;;;4920614;29;20455;-86
2021/12/29 09:38:31;;;;;;;0.30;0.20;;;8.70;99.90;;;;;;4920564;29;20447;-86
2021/12/29 09:41:00;;;;;;;0.30;0.20;;;8.60;99.90;;;;;;4920317;29;20512;-85
2021/12/29 09:43:26;;;;;;;0.30;0.20;;;8.70;99.90;;;;;;4920424;29;20474;-86
2021/12/29 09:45:54;;;;;;;0.30;0.20;;;8.60;99.90;;;;;;4920330;29;20448;-85
2021/12/29 09:48:22;;;;;;;0.30;0.20;;;8.60;99.90;;;;;;4922848;29;20492;-85
2021/12/29 09:50:50;;;;;;;0.30;0.20;;;8.60;99.90;;;;;;4920211;29;20464;-84
2021/12/29 09:53:18;;;;;;;0.30;0.20;;;8.70;99.90;;;;;;4920072;29;20472;-84
2021/12/29 09:55:46;;;;;;;0.30;0.30;;;8.70;99.90;;;;;;4920896;29;20452;-84
2021/12/29 09:58:14;;;;;;;0.50;0.30;;;8.60;99.90;;;;;;4919772;29;20455;-84
2021/12/29 10:00:45;;;;;;;0.57;0.27;;;8.70;99.90;;;;;;4920151;29;20464;-85
2021/12/29 10:03:14;;;;;;;0.30;0.20;;;8.80;99.90;;;;;;4920028;29;20482;-84
2021/12/29 10:05:44;;;;;;;0.30;0.20;;;8.80;99.90;;;;;;4919707;29;20436;-84
2021/12/29 10:08:13;;;;;;;0.30;0.20;;;8.90;99.90;;;;;;4919606;29;20821;-84
2021/12/29 10:10:44;;;;;;;0.30;0.30;;;8.90;99.90;;;;;;4920071;29;20464;-90
2021/12/29 10:13:12;;;;;;;0.30;0.20;;;8.90;99.90;;;;;;4920810;29;20524;-90
2021/12/29 10:15:42;;;;;;;0.40;0.30;;;9.00;99.90;;;;;;4920751;29;20456;-90
2021/12/29 10:18:12;;;;;;;0.30;0.20;;;9.00;99.90;;;;;;4920755;29;20435;-90
2021/12/29 10:20:49;;;;;;;0.30;0.20;;;9.00;99.90;;;;;;4920754;29;20463;-90
2021/12/29 10:23:20;;;;;;;0.30;0.30;;;9.10;99.90;;;;;;4919755;29;20817;-90
2021/12/29 10:25:47;;;;;;;0.33;0.30;;;9.10;99.90;;;;;;4920426;29;20420;-90
2021/12/29 10:28:26;;;;;;;0.30;0.20;;;9.10;99.90;;;;;;4920404;29;20492;-90
2021/12/29 10:31:00;;;;;;;0.30;0.20;;;9.00;99.90;;;;;;4920473;29;20479;-90
2021/12/29 10:33:35;;;;;;;0.30;0.20;;;9.10;99.90;;;;;;4920502;29;20472;-90
2021/12/29 10:36:18;;;;;;;0.30;0.20;;;9.10;99.90;;;;;;4920446;29;20439;-89
2021/12/29 10:38:47;;;;;;;0.30;0.20;;;9.10;99.90;;;;;;4920322;29;20904;-89
2021/12/29 10:41:14;;;;;;;0.30;0.20;;;9.20;99.90;;;;;;4919594;29;20444;-84
2021/12/29 10:43:51;;;;;;;0.30;0.20;;;9.10;99.90;;;;;;4918938;29;21007;-83
2021/12/29 10:46:20;;;;;;;0.30;0.20;;;9.20;99.90;;;;;;4919260;29;20420;-84
2021/12/29 10:48:49;;;;;;;0.30;0.20;;;9.20;99.90;;;;;;4919116;29;20472;-84
2021/12/29 10:51:16;;;;;;;0.30;0.30;;;9.20;99.90;;;;;;4918912;29;20423;-84
2021/12/29 10:53:43;;;;;;;0.30;0.30;;;9.20;99.90;;;;;;4919059;29;20467;-84
2021/12/29 10:56:20;;;;;;;0.30;0.30;;;9.30;99.90;;;;;;4919198;29;20417;-84
2021/12/29 10:58:47;;;;;;;0.30;0.30;;;9.30;99.90;;;;;;4918705;29;20443;-84
2021/12/29 11:01:15;;;;;;;0.30;0.20;;;9.30;99.90;;;;;;4919505;29;20440;-88
2021/12/29 11:03:47;;;;;;;0.30;0.20;;;9.20;99.90;;;;;;4919509;29;20516;-88
2021/12/29 11:06:16;;;;;;;0.30;0.20;;;9.20;99.90;;;;;;4919187;29;21027;-88
2021/12/29 11:08:49;;;;;;;0.30;0.30;;;9.10;99.90;;;;;;4919014;29;20834;-88
2021/12/29 11:11:16;;;;;;;0.30;0.20;;;9.10;99.90;;;;;;4919379;29;20921;-88
2021/12/29 11:13:43;;;;;;;0.77;0.30;;;9.00;99.90;;;;;;4918919;29;20982;-88
2021/12/29 11:16:10;;;;;;;0.30;0.20;;;8.90;99.90;;;;;;4918529;29;20416;-83
2021/12/29 11:18:47;;;;;;;0.30;0.20;;;8.90;99.90;;;;;;4919466;29;20440;-88
2021/12/29 11:21:23;;;;;;;1.57;1.47;;;8.80;99.90;;;;;;4919017;29;20447;-88
2021/12/29 11:23:50;;;;;;;0.30;0.20;;;8.80;99.90;;;;;;4918974;29;20416;-88
2021/12/29 11:26:16;;;;;;;0.30;0.20;;;8.80;99.90;;;;;;4919025;29;20441;-84
2021/12/29 11:28:43;;;;;;;0.30;0.20;;;8.80;99.90;;;;;;4918007;29;20472;-83
2021/12/29 11:31:11;;;;;;;0.30;0.30;;;8.80;99.90;;;;;;4918186;29;20417;-84
2021/12/29 11:33:38;;;;;;;0.30;0.30;;;8.90;99.90;;;;;;4918483;29;20475;-84
2021/12/29 11:36:07;;;;;;;0.30;0.30;;;8.90;99.90;;;;;;4918010;29;20440;-87
2021/12/29 11:38:35;;;;;;;0.30;0.20;;;8.90;99.90;;;;;;4918734;29;20429;-88
2021/12/29 11:41:04;;;;;;;0.30;0.20;;;9.00;99.90;;;;;;4918433;29;20478;-88
2021/12/29 11:43:31;;;;;;;0.30;0.30;;;9.00;99.90;;;;;;4918699;29;20475;-88
2021/12/29 11:45:58;;;;;;;0.40;0.30;;;9.00;99.90;;;;;;4918750;29;20503;-88
2021/12/29 11:48:26;;;;;;;0.40;0.40;;;9.00;99.90;;;;;;4919104;29;20527;-89
2021/12/29 11:50:56;;;;;;;0.30;0.30;;;9.10;99.90;;;;;;4919324;29;20448;-90
2021/12/29 11:53:39;;;;;;;0.30;0.20;;;9.10;99.90;;;;;;4919024;29;20472;-90
2021/12/29 11:56:08;;;;;;;0.30;0.20;;;9.10;99.90;;;;;;4919207;29;20496;-89
2021/12/29 11:58:41;;;;;;;0.30;0.20;;;9.10;99.90;;;;;;4919211;29;20448;-90
2021/12/29 12:01:11;;;;;;;0.30;0.20;;;9.20;99.90;;;;;;4918963;29;20433;-90
2021/12/29 12:03:50;;;;;;;0.30;0.20;;;9.20;99.90;;;;;;4918895;29;20479;-89
2021/12/29 12:06:26;;;;;;;0.30;0.20;;;9.20;99.90;;;;;;4918185;29;20480;-88
2021/12/29 12:09:13;;;;;;;0.30;0.20;;;9.20;99.90;;;;;;4917882;29;20491;-88
2021/12/29 12:11:51;;;;;;;0.30;0.23;;;9.10;99.90;;;;;;4918098;29;20461;-88
2021/12/29 12:14:21;;;;;;;0.30;0.20;;;9.00;99.90;;;;;;4918308;29;20428;-88
2021/12/29 12:16:50;;;;;;;0.30;0.30;;;9.00;99.90;;;;;;4918260;29;20440;-88
2021/12/29 12:19:20;;;;;;;0.30;0.20;;;9.00;99.90;;;;;;4917867;29;20439;-87
2021/12/29 12:21:47;;;;;;;0.30;0.20;;;9.00;99.90;;;;;;4918035;29;20531;-88
2021/12/29 12:24:18;;;;;;;0.30;0.20;;;9.10;99.90;;;;;;4917996;29;20436;-89
2021/12/29 12:26:54;;;;;;;0.30;0.30;;;9.20;99.90;;;;;;4918085;29;20904;-88
2021/12/29 12:29:22;;;;;;;0.30;0.20;;;9.20;99.90;;;;;;4918144;29;20478;-89
2021/12/29 12:32:06;;;;;;;0.30;0.27;;;9.10;99.90;;;;;;4918620;29;20536;-88
2021/12/29 12:34:34;;;;;;;0.30;0.23;;;9.10;99.90;;;;;;4918012;29;20799;-88
2021/12/29 12:37:02;;;;;;;0.30;0.30;;;9.10;99.90;;;;;;4917785;29;20444;-88
2021/12/29 12:39:31;;;;;;;0.30;0.20;;;9.10;99.90;;;;;;4918010;29;20455;-88
2021/12/29 12:41:59;;;;;;;0.30;0.30;;;9.00;99.90;;;;;;4918151;29;20481;-88
2021/12/29 12:44:34;;;;;;;0.30;0.20;;;9.10;99.90;;;;;;4917773;29;20831;-88
2021/12/29 12:47:10;;;;;;;0.30;0.27;;;9.00;99.90;;;;;;4917494;29;20436;-87
2021/12/29 12:49:44;;;;;;;0.30;0.30;;;9.10;99.90;;;;;;4917605;29;20899;-87
2021/12/29 12:52:13;;;;;;;0.40;0.30;;;9.10;99.90;;;;;;4917741;29;20456;-90
2021/12/29 12:54:46;;;;;;;0.60;0.30;;;9.20;99.90;;;;;;4917972;29;20959;-89
2021/12/29 12:57:14;;;;;;;0.30;0.20;;;9.20;99.90;;;;;;4918396;29;20444;-84
2021/12/29 12:59:43;;;;;;;0.30;0.30;;;9.30;99.90;;;;;;4917121;29;20444;-83
2021/12/29 13:02:13;;;;;;;1.27;0.27;;;9.30;99.90;;;;;;4916763;29;20452;-83
2021/12/29 13:04:43;;;;;;;0.30;0.20;;;9.40;99.90;;;;;;4916705;29;20424;-83
2021/12/29 13:07:10;;;;;;;0.40;0.30;;;9.40;99.90;;;;;;4916634;29;20464;-84
2021/12/29 13:09:47;;;;;;;0.30;0.30;;;9.40;99.90;;;;;;4916788;29;20437;-84
2021/12/29 13:12:26;;;;;;;0.30;0.30;;;9.40;99.90;;;;;;4916963;29;20554;-83